createdAt,value
2023-03-30T00:01:15.351Z,67.83
2023-03-30T00:03:50.292Z,68.02
2023-03-30T00:06:23.599Z,67.83
2023-03-30T00:08:57.959Z,67.33
2023-03-30T00:11:33.907Z,67.86
2023-03-30T00:14:06.631Z,67.36
2023-03-30T00:16:39.508Z,67.72
2023-03-30T00:19:14.071Z,68.25
2023-03-30T00:21:47.280Z,67.81
2023-03-30T00:24:21.772Z,67.63
2023-03-30T00:26:54.685Z,67.87
2023-03-30T00:29:27.649Z,67.86
2023-03-30T00:32:01.117Z,67.63
2023-03-30T00:34:35.507Z,67.83
2023-03-30T00:37:08.382Z,67.64
2023-03-30T00:39:41.617Z,67.38
2023-03-30T00:42:15.380Z,67.58
2023-03-30T00:45:22.414Z,67.66
2023-03-30T00:48:01.351Z,67.60
2023-03-30T00:50:40.610Z,67.68
2023-03-30T00:53:17.349Z,67.64
2023-03-30T00:55:52.879Z,67.28
2023-03-30T00:58:28.444Z,67.91
2023-03-30T01:01:03.965Z,67.19
2023-03-30T01:03:43.754Z,67.28
2023-03-30T01:06:22.010Z,67.78
2023-03-30T01:08:55.686Z,68.07
2023-03-30T01:11:30.088Z,67.95
2023-03-30T01:14:07.253Z,68.00
2023-03-30T01:16:50.255Z,68.29
2023-03-30T01:19:51.286Z,68.31
2023-03-30T01:22:52.698Z,67.99
2023-03-30T01:25:52.760Z,68.31
2023-03-30T01:28:33.958Z,68.62
2023-03-30T01:31:27.570Z,68.67
2023-03-30T01:34:20.287Z,68.78
2023-03-30T01:37:18.912Z,68.65
2023-03-30T01:39:57.942Z,68.75
2023-03-30T01:42:38.386Z,68.71
2023-03-30T01:45:16.872Z,68.67
2023-03-30T01:47:54.160Z,69.16
2023-03-30T01:50:31.599Z,69.00
2023-03-30T01:53:11.950Z,69.02
2023-03-30T01:55:50.809Z,69.11
2023-03-30T01:58:31.860Z,69.06
2023-03-30T02:01:07.887Z,69.26
2023-03-30T02:03:43.974Z,69.21
2023-03-30T02:06:21.353Z,69.40
2023-03-30T02:08:59.745Z,69.79
2023-03-30T02:11:36.067Z,70.13
2023-03-30T02:14:11.540Z,70.21
2023-03-30T02:16:47.441Z,70.04
2023-03-30T02:19:20.852Z,69.68
2023-03-30T02:21:54.010Z,69.96
2023-03-30T02:24:31.533Z,69.93
2023-03-30T02:27:06.648Z,69.92
2023-03-30T02:29:43.096Z,70.19
2023-03-30T02:32:19.913Z,70.02
2023-03-30T02:35:08.920Z,70.03
2023-03-30T02:38:03.370Z,69.65
2023-03-30T02:40:46.581Z,69.89
2023-03-30T02:43:29.384Z,69.92
2023-03-30T02:46:21.638Z,70.10
2023-03-30T02:49:09.010Z,70.13
2023-03-30T02:51:48.945Z,70.22
2023-03-30T02:54:44.330Z,70.38
2023-03-30T02:57:36.283Z,69.97
2023-03-30T03:00:33.726Z,69.94
2023-03-30T03:03:15.377Z,70.16
2023-03-30T03:05:49.109Z,69.97
2023-03-30T03:08:24.673Z,69.94
2023-03-30T03:10:59.918Z,69.75
2023-03-30T03:13:36.702Z,70.05
2023-03-30T03:16:12.394Z,70.20
2023-03-30T03:18:51.337Z,70.53
2023-03-30T03:21:24.077Z,70.43
2023-03-30T03:23:56.866Z,70.51
2023-03-30T03:26:36.657Z,70.50
2023-03-30T03:29:09.514Z,70.14
2023-03-30T03:31:43.798Z,69.75
2023-03-30T03:34:18.065Z,70.04
2023-03-30T03:37:03.923Z,70.63
2023-03-30T03:39:38.924Z,69.95
2023-03-30T03:42:17.040Z,69.65
2023-03-30T03:45:10.329Z,70.10
2023-03-30T03:47:55.316Z,70.33
2023-03-30T03:50:44.654Z,70.39
2023-03-30T03:53:17.683Z,70.48
2023-03-30T03:55:50.435Z,70.29
2023-03-30T03:58:23.247Z,70.63
2023-03-30T04:01:01.406Z,70.78
2023-03-30T04:03:35.559Z,71.12
2023-03-30T04:06:08.694Z,71.11
2023-03-30T04:08:41.570Z,71.06
2023-03-30T04:11:29.128Z,71.59
2023-03-30T04:14:27.432Z,71.02
2023-03-30T04:17:18.882Z,71.36
2023-03-30T04:20:11.593Z,71.09
2023-03-30T04:23:21.803Z,71.33
2023-03-30T04:26:15.477Z,71.59
2023-03-30T04:29:11.050Z,71.37
2023-03-30T04:32:02.710Z,71.57
2023-03-30T04:34:54.818Z,70.83
2023-03-30T04:37:31.117Z,71.02
2023-03-30T04:40:11.004Z,70.79
2023-03-30T04:43:21.493Z,70.51
2023-03-30T04:46:29.430Z,70.41
2023-03-30T04:49:22.812Z,70.61
2023-03-30T04:52:14.183Z,70.14
2023-03-30T04:55:23.994Z,70.37
2023-03-30T04:58:16.661Z,70.68
2023-03-30T05:01:07.441Z,70.75
2023-03-30T05:03:57.614Z,71.05
2023-03-30T05:06:45.836Z,70.89
2023-03-30T05:09:39.613Z,70.83
2023-03-30T05:12:32.303Z,71.34
2023-03-30T05:15:25.363Z,70.91
2023-03-30T05:18:18.365Z,71.19
2023-03-30T05:21:11.757Z,71.36
2023-03-30T05:24:20.061Z,71.31
2023-03-30T05:27:14.398Z,71.31
2023-03-30T05:30:20.657Z,71.21
2023-03-30T05:33:25.760Z,71.61
2023-03-30T05:36:24.271Z,73.01
2023-03-30T05:39:35.097Z,71.41
2023-03-30T05:42:08.177Z,71.51
2023-03-30T05:45:16.578Z,71.64
2023-03-30T05:48:15.002Z,71.30
2023-03-30T05:51:04.363Z,71.49
2023-03-30T05:54:03.545Z,71.57
2023-03-30T05:57:04.205Z,71.11
2023-03-30T05:59:45.954Z,71.51
2023-03-30T06:02:32.697Z,71.53
2023-03-30T06:05:12.309Z,71.70
2023-03-30T06:07:48.241Z,71.54
2023-03-30T06:10:21.467Z,71.35
2023-03-30T06:12:54.269Z,71.10
2023-03-30T06:15:40.595Z,71.31
2023-03-30T06:18:16.749Z,71.33
2023-03-30T06:21:02.335Z,71.16
2023-03-30T06:23:37.308Z,71.55
2023-03-30T06:26:15.734Z,71.35
2023-03-30T06:28:48.755Z,71.27
2023-03-30T06:31:21.748Z,71.54
2023-03-30T06:34:01.729Z,71.20
2023-03-30T06:36:44.950Z,71.30
2023-03-30T06:39:19.831Z,71.39
2023-03-30T06:41:52.627Z,71.35
2023-03-30T06:44:39.804Z,71.08
2023-03-30T06:47:17.606Z,71.02
2023-03-30T06:49:50.342Z,71.03
2023-03-30T06:53:00.952Z,71.59
2023-03-30T06:55:39.566Z,71.55
2023-03-30T06:58:12.418Z,71.78
2023-03-30T07:00:48.307Z,71.41
2023-03-30T07:03:41.234Z,71.59
2023-03-30T07:06:24.484Z,71.35
2023-03-30T07:09:00.263Z,71.11
2023-03-30T07:11:33.557Z,71.52
2023-03-30T07:14:10.050Z,71.54
2023-03-30T07:16:42.955Z,71.54
2023-03-30T07:19:16.306Z,71.03
2023-03-30T07:21:49.032Z,71.81
2023-03-30T07:24:27.710Z,71.16
2023-03-30T07:27:00.640Z,71.11
2023-03-30T07:29:33.353Z,71.41
2023-03-30T07:32:06.664Z,71.24
2023-03-30T07:34:39.775Z,71.25
2023-03-30T07:37:12.587Z,71.55
2023-03-30T07:39:46.757Z,71.90
2023-03-30T07:42:19.869Z,71.44
2023-03-30T07:44:53.107Z,71.42
2023-03-30T07:47:26.863Z,71.23
2023-03-30T07:49:59.878Z,71.42
2023-03-30T07:52:32.876Z,71.19
2023-03-30T07:55:15.757Z,71.22
2023-03-30T07:57:58.229Z,71.15
2023-03-30T08:00:31.033Z,71.46
2023-03-30T08:03:23.109Z,71.30
2023-03-30T08:05:57.368Z,71.38
2023-03-30T08:08:32.446Z,71.64
2023-03-30T08:11:09.052Z,71.33
2023-03-30T08:13:42.099Z,71.01
2023-03-30T08:16:15.133Z,71.04
2023-03-30T08:18:48.199Z,71.63
2023-03-30T08:21:21.209Z,70.98
2023-03-30T08:23:53.769Z,70.69
2023-03-30T08:26:28.249Z,70.10
2023-03-30T08:29:02.338Z,70.28
2023-03-30T08:31:37.484Z,70.38
2023-03-30T08:34:11.602Z,70.16
2023-03-30T08:36:44.360Z,69.82
2023-03-30T08:39:17.145Z,69.39
2023-03-30T08:42:13.832Z,69.57
2023-03-30T08:44:56.766Z,68.85
2023-03-30T08:47:34.369Z,69.44
2023-03-30T08:50:09.521Z,68.62
2023-03-30T08:52:42.916Z,68.48
2023-03-30T08:55:24.787Z,68.64
2023-03-30T08:58:03.291Z,68.69
2023-03-30T09:00:42.692Z,67.79
2023-03-30T09:03:19.971Z,68.48
2023-03-30T09:05:56.401Z,68.45
2023-03-30T09:08:31.124Z,68.10
2023-03-30T09:11:08.196Z,68.78
2023-03-30T09:13:46.440Z,68.74
2023-03-30T09:16:23.723Z,67.86
2023-03-30T09:19:02.408Z,68.24
2023-03-30T09:21:35.151Z,67.25
2023-03-30T09:24:16.063Z,68.22
2023-03-30T09:26:56.312Z,68.27
2023-03-30T09:29:34.224Z,67.87
2023-03-30T09:32:15.300Z,67.30
2023-03-30T09:34:55.307Z,67.53
2023-03-30T09:37:35.346Z,67.16
2023-03-30T09:40:21.463Z,67.45
2023-03-30T09:43:02.669Z,68.34
2023-03-30T09:45:37.757Z,67.27
2023-03-30T09:48:11.031Z,68.04
2023-03-30T09:50:46.693Z,68.27
2023-03-30T09:53:24.901Z,67.24
2023-03-30T09:56:04.327Z,67.32
2023-03-30T09:58:38.490Z,66.76
2023-03-30T10:01:18.395Z,68.28
2023-03-30T10:04:16.439Z,66.31
2023-03-30T10:06:51.423Z,66.38
2023-03-30T10:09:25.068Z,67.99
2023-03-30T10:11:58.555Z,67.81
2023-03-30T10:14:34.861Z,67.18
2023-03-30T10:17:19.359Z,68.49
2023-03-30T10:20:03.636Z,66.59
2023-03-30T10:22:51.612Z,67.25
2023-03-30T10:25:28.242Z,68.19
2023-03-30T10:28:04.203Z,65.91
2023-03-30T10:30:37.390Z,67.64
2023-03-30T10:33:12.622Z,66.13
2023-03-30T10:35:49.999Z,67.59
2023-03-30T10:38:24.341Z,66.81
2023-03-30T10:41:03.573Z,67.44
2023-03-30T10:43:38.225Z,67.14
2023-03-30T10:46:20.035Z,67.66
2023-03-30T10:49:13.746Z,64.77
2023-03-30T10:51:59.243Z,65.52
2023-03-30T10:54:39.248Z,66.03
2023-03-30T10:57:15.036Z,67.37
2023-03-30T11:00:02.391Z,66.98
2023-03-30T11:02:45.506Z,64.88
2023-03-30T11:05:21.638Z,65.57
2023-03-30T11:07:58.356Z,65.30
2023-03-30T11:10:33.861Z,66.41
2023-03-30T11:13:08.751Z,65.40
2023-03-30T11:15:47.298Z,65.69
2023-03-30T11:18:25.068Z,65.97
2023-03-30T11:21:02.625Z,66.34
2023-03-30T11:23:43.417Z,67.01
2023-03-30T11:26:21.525Z,67.07
2023-03-30T11:29:04.041Z,67.38
2023-03-30T11:31:48.006Z,67.00
2023-03-30T11:34:29.009Z,66.32
2023-03-30T11:37:12.125Z,65.32
2023-03-30T11:39:52.061Z,67.38
2023-03-30T11:42:29.530Z,66.51
2023-03-30T11:45:04.877Z,67.45
2023-03-30T11:47:50.373Z,66.84
2023-03-30T11:50:38.006Z,66.50
2023-03-30T11:53:25.174Z,67.50
2023-03-30T11:56:08.408Z,66.56
2023-03-30T11:58:47.000Z,67.52
2023-03-30T12:01:31.353Z,66.70
2023-03-30T12:04:09.003Z,67.20
2023-03-30T12:06:56.943Z,66.95
2023-03-30T12:09:39.591Z,68.38
2023-03-30T12:12:15.866Z,67.99
2023-03-30T12:15:07.147Z,67.60
2023-03-30T12:17:49.949Z,67.00
2023-03-30T12:20:33.081Z,67.36
2023-03-30T12:23:23.853Z,67.13
2023-03-30T12:26:20.657Z,67.27
2023-03-30T12:29:40.518Z,67.35
2023-03-30T12:32:07.106Z,68.36
2023-03-30T12:34:45.039Z,67.38
2023-03-30T12:37:22.828Z,67.81
2023-03-30T12:40:06.208Z,66.99
2023-03-30T12:42:46.926Z,67.42
2023-03-30T12:45:30.286Z,67.03
2023-03-30T12:48:29.747Z,66.81
2023-03-30T12:51:13.414Z,67.42
2023-03-30T12:54:09.282Z,66.59
2023-03-30T12:56:55.677Z,67.21
2023-03-30T12:59:53.300Z,67.07
2023-03-30T13:02:55.239Z,67.08
2023-03-30T13:05:32.476Z,66.68
2023-03-30T13:08:08.834Z,67.22
2023-03-30T13:10:44.243Z,67.24
2023-03-30T13:13:44.442Z,66.42
2023-03-30T13:16:51.230Z,66.30
2023-03-30T13:19:41.129Z,66.19
2023-03-30T13:22:28.018Z,66.35
2023-03-30T13:25:03.697Z,66.05
2023-03-30T13:27:38.283Z,66.00
2023-03-30T13:30:15.092Z,66.01
2023-03-30T13:32:59.372Z,65.40
2023-03-30T13:35:42.932Z,65.10
2023-03-30T13:38:33.190Z,64.83
2023-03-30T13:41:19.978Z,65.10
2023-03-30T13:44:14.953Z,65.06
2023-03-30T13:46:53.527Z,64.73
2023-03-30T13:49:37.776Z,64.33
2023-03-30T13:52:16.952Z,64.69
2023-03-30T13:54:49.898Z,63.81
2023-03-30T13:57:23.850Z,64.93
2023-03-30T14:00:03.448Z,65.21
2023-03-30T14:02:41.202Z,64.97
2023-03-30T14:05:17.799Z,63.75
2023-03-30T14:07:55.187Z,65.29
2023-03-30T14:10:28.418Z,63.81
2023-03-30T14:13:01.393Z,64.23
2023-03-30T14:15:38.730Z,64.99
2023-03-30T14:18:21.143Z,63.44
2023-03-30T14:20:57.287Z,64.99
2023-03-30T14:23:37.428Z,63.96
2023-03-30T14:26:16.102Z,63.27
2023-03-30T14:28:50.828Z,63.49
2023-03-30T14:31:23.775Z,64.81
2023-03-30T14:33:58.896Z,63.83
2023-03-30T14:36:31.687Z,64.30
2023-03-30T14:39:10.433Z,63.11
2023-03-30T14:41:44.199Z,65.94
2023-03-30T14:44:19.646Z,63.08
2023-03-30T14:46:56.570Z,63.63
2023-03-30T14:49:31.857Z,63.95
2023-03-30T14:52:09.475Z,64.88
2023-03-30T14:54:54.454Z,64.48
2023-03-30T14:57:40.402Z,62.13
2023-03-30T15:00:20.438Z,63.17
2023-03-30T15:02:56.756Z,63.81
2023-03-30T15:05:31.219Z,63.44
2023-03-30T15:08:04.967Z,64.33
2023-03-30T15:10:49.792Z,63.13
2023-03-30T15:13:29.039Z,63.87
2023-03-30T15:16:06.533Z,62.08
2023-03-30T15:18:39.329Z,63.68
2023-03-30T15:21:14.058Z,63.03
2023-03-30T15:23:48.829Z,63.24
2023-03-30T15:26:23.129Z,62.83
2023-03-30T15:28:59.569Z,64.13
2023-03-30T15:31:34.377Z,63.83
2023-03-30T15:34:14.949Z,63.42
2023-03-30T15:36:54.465Z,63.05
2023-03-30T15:39:33.889Z,63.04
2023-03-30T15:42:08.715Z,63.72
2023-03-30T15:44:43.214Z,64.04
2023-03-30T15:47:20.959Z,63.81
2023-03-30T15:49:53.717Z,63.45
2023-03-30T15:52:34.212Z,64.83
2023-03-30T15:55:15.561Z,64.68
2023-03-30T15:57:52.668Z,64.76
2023-03-30T16:00:28.912Z,65.00
2023-03-30T16:03:04.001Z,64.72
2023-03-30T16:05:37.089Z,65.19
2023-03-30T16:08:09.811Z,64.13
2023-03-30T16:10:42.504Z,64.65
2023-03-30T16:13:16.856Z,64.82
2023-03-30T16:15:49.736Z,64.65
2023-03-30T16:18:22.489Z,64.24
2023-03-30T16:20:55.239Z,63.80
2023-03-30T16:23:27.915Z,64.83
2023-03-30T16:26:00.760Z,64.78
2023-03-30T16:28:34.787Z,65.23
2023-03-30T16:31:15.293Z,65.10
2023-03-30T16:33:47.990Z,64.93
2023-03-30T16:36:25.070Z,64.71
2023-03-30T16:38:57.709Z,65.80
2023-03-30T16:41:30.787Z,65.24
2023-03-30T16:44:05.013Z,64.82
2023-03-30T16:46:37.804Z,65.50
2023-03-30T16:49:14.728Z,65.00
2023-03-30T16:51:47.610Z,66.25
2023-03-30T16:54:30.547Z,64.10
2023-03-30T16:57:05.765Z,64.47
2023-03-30T16:59:42.241Z,65.53
2023-03-30T17:02:17.582Z,64.93
2023-03-30T17:04:52.609Z,64.65
2023-03-30T17:07:26.568Z,65.56
2023-03-30T17:10:00.719Z,65.35
2023-03-30T17:12:33.604Z,66.29
2023-03-30T17:15:09.528Z,65.52
2023-03-30T17:17:42.299Z,66.05
2023-03-30T17:20:26.192Z,66.44
2023-03-30T17:22:59.990Z,65.41
2023-03-30T17:25:35.400Z,64.69
2023-03-30T17:28:09.857Z,66.58
2023-03-30T17:30:44.351Z,65.62
2023-03-30T17:33:20.217Z,66.06
2023-03-30T17:35:56.601Z,65.74
2023-03-30T17:38:30.042Z,65.77
2023-03-30T17:41:03.003Z,65.67
2023-03-30T17:43:36.391Z,66.58
2023-03-30T17:46:14.224Z,66.59
2023-03-30T17:48:47.487Z,65.68
2023-03-30T17:51:20.708Z,65.90
2023-03-30T17:53:53.639Z,66.33
2023-03-30T17:56:28.595Z,66.48
2023-03-30T17:59:05.444Z,65.04
2023-03-30T18:01:41.127Z,66.44
2023-03-30T18:04:14.862Z,68.01
2023-03-30T18:06:49.247Z,66.52
2023-03-30T18:09:25.914Z,66.97
2023-03-30T18:12:00.426Z,67.50
2023-03-30T18:14:34.471Z,67.06
2023-03-30T18:17:11.598Z,67.44
2023-03-30T18:19:48.025Z,67.63
2023-03-30T18:22:20.977Z,66.68
2023-03-30T18:24:53.607Z,67.46
2023-03-30T18:27:34.462Z,67.38
2023-03-30T18:30:19.052Z,66.98
2023-03-30T18:32:54.483Z,66.98
2023-03-30T18:35:29.081Z,67.70
2023-03-30T18:38:02.986Z,67.36
2023-03-30T18:40:38.269Z,66.96
2023-03-30T18:43:14.168Z,68.67
2023-03-30T18:45:49.796Z,67.86
2023-03-30T18:48:24.339Z,67.22
2023-03-30T18:50:58.039Z,67.10
2023-03-30T18:53:31.079Z,67.75
2023-03-30T18:56:04.150Z,67.77
2023-03-30T18:58:43.021Z,68.39
2023-03-30T19:01:16.945Z,67.77
2023-03-30T19:03:51.965Z,66.93
2023-03-30T19:06:24.990Z,66.97
2023-03-30T19:09:00.752Z,68.54
2023-03-30T19:11:33.911Z,67.32
2023-03-30T19:14:17.000Z,67.59
2023-03-30T19:16:58.803Z,68.10
2023-03-30T19:19:41.373Z,68.98
2023-03-30T19:22:14.604Z,68.25
2023-03-30T19:24:56.743Z,67.38
2023-03-30T19:27:32.233Z,67.30
2023-03-30T19:30:12.373Z,68.75
2023-03-30T19:32:46.318Z,69.04
2023-03-30T19:35:20.749Z,68.10
2023-03-30T19:37:54.107Z,70.26
2023-03-30T19:40:28.503Z,68.00
2023-03-30T19:43:03.724Z,68.14
2023-03-30T19:45:36.725Z,69.08
2023-03-30T19:48:16.922Z,68.00
2023-03-30T19:50:59.329Z,68.62
2023-03-30T19:53:32.340Z,69.67
2023-03-30T19:56:10.419Z,68.28
2023-03-30T19:58:43.256Z,68.42
2023-03-30T20:01:16.735Z,69.68
2023-03-30T20:03:49.894Z,68.53
2023-03-30T20:06:23.899Z,68.94
2023-03-30T20:09:00.349Z,68.88
2023-03-30T20:11:33.034Z,68.56
2023-03-30T20:14:06.238Z,68.42
2023-03-30T20:16:45.476Z,69.75
2023-03-30T20:19:29.095Z,68.50
2023-03-30T20:22:06.849Z,67.87
2023-03-30T20:24:40.558Z,70.17
2023-03-30T20:27:13.368Z,70.00
2023-03-30T20:29:46.348Z,69.29
2023-03-30T20:32:18.920Z,69.09
2023-03-30T20:34:53.060Z,69.39
2023-03-30T20:37:27.309Z,69.74
2023-03-30T20:40:04.025Z,69.84
2023-03-30T20:42:39.888Z,70.36
2023-03-30T20:45:13.768Z,68.98
2023-03-30T20:47:50.054Z,68.84
2023-03-30T20:50:23.080Z,69.00
2023-03-30T20:52:58.833Z,69.70
2023-03-30T20:55:31.505Z,69.69
2023-03-30T20:58:04.397Z,68.92
2023-03-30T21:00:36.955Z,69.36
2023-03-30T21:03:14.900Z,69.80
2023-03-30T21:05:48.141Z,70.32
2023-03-30T21:08:22.249Z,70.14
2023-03-30T21:10:55.519Z,69.61
2023-03-30T21:13:28.747Z,68.72
2023-03-30T21:16:03.558Z,68.53
2023-03-30T21:18:36.840Z,70.00
2023-03-30T21:21:10.250Z,69.46
2023-03-30T21:23:44.923Z,69.28
2023-03-30T21:26:18.510Z,70.07
2023-03-30T21:28:51.658Z,69.60
2023-03-30T21:31:24.860Z,68.99
2023-03-30T21:33:57.695Z,69.84
2023-03-30T21:36:30.518Z,68.86
2023-03-30T21:39:04.665Z,69.41
2023-03-30T21:41:37.823Z,68.79
2023-03-30T21:44:10.529Z,69.73
2023-03-30T21:46:43.366Z,69.80
2023-03-30T21:49:16.168Z,69.04
2023-03-30T21:51:48.836Z,69.85
2023-03-30T21:54:23.662Z,70.88
2023-03-30T21:56:56.524Z,69.35
2023-03-30T21:59:29.425Z,70.99
2023-03-30T22:02:02.254Z,69.46
2023-03-30T22:04:35.437Z,69.60
2023-03-30T22:07:08.609Z,69.94
2023-03-30T22:09:43.190Z,70.14
2023-03-30T22:12:17.712Z,70.12
2023-03-30T22:14:51.049Z,70.14
2023-03-30T22:17:34.666Z,69.88
2023-03-30T22:20:10.387Z,69.40
2023-03-30T22:22:44.173Z,69.64
2023-03-30T22:25:18.973Z,70.16
2023-03-30T22:27:54.153Z,70.64
2023-03-30T22:30:27.129Z,69.31
2023-03-30T22:33:00.181Z,70.50
2023-03-30T22:35:37.363Z,69.88
2023-03-30T22:38:11.242Z,70.34
2023-03-30T22:40:45.192Z,70.33
2023-03-30T22:43:17.942Z,70.50
2023-03-30T22:45:50.712Z,70.19
2023-03-30T22:48:23.483Z,68.86
2023-03-30T22:50:58.024Z,70.52
2023-03-30T22:53:31.290Z,70.13
2023-03-30T22:56:12.031Z,69.30
2023-03-30T22:58:44.768Z,70.70
2023-03-30T23:01:17.526Z,69.45
2023-03-30T23:03:50.369Z,69.71
2023-03-30T23:06:23.310Z,69.81
2023-03-30T23:08:56.119Z,70.52
2023-03-30T23:11:30.298Z,69.85
2023-03-30T23:14:05.157Z,69.78
2023-03-30T23:16:38.023Z,69.64
2023-03-30T23:19:11.384Z,70.76
2023-03-30T23:21:44.638Z,70.37
2023-03-30T23:24:17.291Z,70.45
2023-03-30T23:26:51.533Z,70.59
2023-03-30T23:29:24.232Z,70.51
2023-03-30T23:31:56.920Z,70.60
2023-03-30T23:34:29.832Z,70.61
2023-03-30T23:37:02.921Z,70.28
2023-03-30T23:39:35.713Z,70.66
2023-03-30T23:42:09.863Z,71.07
2023-03-30T23:44:42.591Z,70.83
2023-03-30T23:47:16.292Z,70.77
2023-03-30T23:49:49.006Z,70.78
2023-03-30T23:52:21.730Z,70.62
2023-03-30T23:54:54.620Z,70.06
2023-03-30T23:57:29.130Z,69.88
